Time;durP1;ratioP1;P1;durP2;ratioP2;P2;SDS_P1;SDS_P2;PMS_P1;PMS_P2;Temp;Humidity;BMP_temperature;BMP_pressure;BME280_temperature;BME280_humidity;BME280_pressure;Samples;Min_cycle;Max_cycle;Signal;HPM_P1;HPM_P2
2023/08/07 00:02:20;;;;;;;;;;;;;;;26.40;53.56;98876.87;107808;1257;72768;-69
2023/08/07 00:04:48;;;;;;;;;;;;;;;26.41;53.58;98872.48;107702;1260;72829;-69
2023/08/07 00:07:15;;;;;;;;;;;;;;;26.39;53.77;98859.98;107782;1257;61343;-67
2023/08/07 00:09:43;;;;;;;;;;;;;;;26.37;53.76;98859.06;107697;1259;61114;-68
2023/08/07 00:12:11;;;;;;;;;;;;;;;26.37;53.78;98854.77;107670;1256;73361;-68
2023/08/07 00:14:38;;;;;;;;;;;;;;;26.37;53.88;98853.11;107779;1257;73024;-68
2023/08/07 00:17:06;;;;;;;;;;;;;;;26.38;53.91;98848.17;107788;1256;72827;-68
2023/08/07 00:19:34;;;;;;;;;;;;;;;26.38;53.90;98845.52;107694;1256;61077;-69
2023/08/07 00:22:01;;;;;;;;;;;;;;;26.36;53.97;98840.38;107754;1257;61189;-67
2023/08/07 00:24:29;;;;;;;;;;;;;;;26.37;53.88;98839.82;107655;1257;76406;-68
2023/08/07 00:26:56;;;;;;;;;;;;;;;26.35;53.84;98834.67;107684;1257;72894;-67
2023/08/07 00:29:24;;;;;;;;;;;;;;;26.34;53.88;98834.61;107832;1257;72762;-68
2023/08/07 00:31:52;;;;;;;;;;;;;;;26.33;54.09;98826.70;107673;1257;61197;-69
2023/08/07 00:34:19;;;;;;;;;;;;;;;26.30;54.13;98828.08;107803;1257;61144;-68
2023/08/07 00:36:47;;;;;;;;;;;;;;;26.26;54.17;98827.10;107707;1257;77184;-68
2023/08/07 00:39:15;;;;;;;;;;;;;;;26.25;54.24;98825.46;107755;1257;72113;-67
2023/08/07 00:41:42;;;;;;;;;;;;;;;26.23;54.25;98825.56;107655;1257;72766;-67
2023/08/07 00:44:10;;;;;;;;;;;;;;;26.22;54.17;98826.13;107778;1257;59922;-67
2023/08/07 00:46:39;;;;;;;;;;;;;;;26.18;54.39;98821.85;107735;1257;60246;-68
2023/08/07 00:49:07;;;;;;;;;;;;;;;26.14;54.45;98810.94;107834;1260;74759;-68
2023/08/07 00:51:35;;;;;;;;;;;;;;;26.12;54.62;98801.11;107718;1257;71741;-68
2023/08/07 00:54:03;;;;;;;;;;;;;;;26.09;54.62;98800.51;107686;1257;71528;-68
2023/08/07 00:56:31;;;;;;;;;;;;;;;26.05;54.83;98802.35;107663;1258;64210;-70
2023/08/07 00:58:58;;;;;;;;;;;;;;;26.02;54.87;98800.10;107654;1255;60030;-69
2023/08/07 01:01:27;;;;;;;;;;;;;;;26.00;54.98;98807.08;107744;1257;74757;-68
2023/08/07 01:03:54;;;;;;;;;;;;;;;25.99;55.09;98802.85;107752;1257;71535;-68
2023/08/07 01:06:22;;;;;;;;;;;;;;;25.97;55.16;98805.30;107719;1259;71332;-67
2023/08/07 01:08:49;;;;;;;;;;;;;;;25.95;55.31;98804.37;107738;1257;61138;-68
2023/08/07 01:11:21;;;;;;;;;;;;;;;25.93;55.28;98808.45;107461;1263;61112;-68
2023/08/07 01:13:49;;;;;;;;;;;;;;;25.92;55.45;98795.41;107642;1257;74721;-68
2023/08/07 01:16:18;;;;;;;;;;;;;;;25.90;55.56;98794.27;107742;1262;71456;-68
2023/08/07 01:18:46;;;;;;;;;;;;;;;25.87;55.75;98785.52;107472;1257;71407;-69
2023/08/07 01:21:17;;;;;;;;;;;;;;;25.86;55.87;98789.98;107806;1257;61123;-68
2023/08/07 01:23:48;;;;;;;;;;;;;;;25.84;55.97;98793.69;107748;1257;61260;-68
2023/08/07 01:26:18;;;;;;;;;;;;;;;25.83;56.08;98785.09;107784;1254;74852;-68
2023/08/07 01:28:49;;;;;;;;;;;;;;;25.81;56.32;98781.52;107661;1257;72835;-68
2023/08/07 01:31:17;;;;;;;;;;;;;;;25.79;56.49;98778.84;107745;1257;72928;-68
2023/08/07 01:33:51;;;;;;;;;;;;;;;25.76;56.49;98779.95;107645;1257;62226;-68
2023/08/07 01:36:19;;;;;;;;;;;;;;;25.75;56.71;98766.52;107866;1256;61269;-68
2023/08/07 01:38:46;;;;;;;;;;;;;;;25.73;56.89;98755.05;107782;1257;73798;-68
2023/08/07 01:41:14;;;;;;;;;;;;;;;25.70;56.98;98746.10;107563;1257;72916;-68
2023/08/07 01:43:42;;;;;;;;;;;;;;;25.67;57.16;98736.12;107670;1257;72783;-68
2023/08/07 01:46:10;;;;;;;;;;;;;;;25.65;57.40;98726.23;107928;1257;61725;-67
2023/08/07 01:48:38;;;;;;;;;;;;;;;25.62;57.61;98719.05;107716;1256;61122;-68
2023/08/07 01:51:06;;;;;;;;;;;;;;;25.61;57.69;98721.41;107686;1257;74656;-69
2023/08/07 01:53:33;;;;;;;;;;;;;;;25.59;57.82;98719.69;107826;1257;72107;-68
2023/08/07 01:56:01;;;;;;;;;;;;;;;25.60;57.84;98716.26;107732;1260;71484;-68
2023/08/07 01:58:29;;;;;;;;;;;;;;;25.60;57.84;98718.36;107627;1257;62117;-67
2023/08/07 02:00:56;;;;;;;;;;;;;;;25.62;57.80;98722.48;107672;1257;61134;-68
2023/08/07 02:03:24;;;;;;;;;;;;;;;25.64;57.78;98723.34;107710;1257;73376;-68
2023/08/07 02:05:53;;;;;;;;;;;;;;;25.68;57.76;98722.83;107829;1257;72854;-69
2023/08/07 02:08:21;;;;;;;;;;;;;;;25.72;57.66;98728.58;107737;1257;72808;-69
2023/08/07 02:10:48;;;;;;;;;;;;;;;25.78;57.59;98734.69;107704;1257;61201;-69
2023/08/07 02:13:16;;;;;;;;;;;;;;;25.81;57.38;98733.77;107747;1256;61069;-69
2023/08/07 02:15:43;;;;;;;;;;;;;;;25.84;57.26;98736.24;107654;1256;74780;-69
2023/08/07 02:18:11;;;;;;;;;;;;;;;25.87;57.09;98738.02;107653;1257;71610;-67
2023/08/07 02:20:39;;;;;;;;;;;;;;;25.89;57.09;98747.67;107791;1260;71869;-68
2023/08/07 02:23:07;;;;;;;;;;;;;;;25.90;57.08;98760.95;107686;1260;62609;-68
2023/08/07 02:25:35;;;;;;;;;;;;;;;25.91;56.99;98757.28;107670;1256;61474;-69
2023/08/07 02:28:02;;;;;;;;;;;;;;;25.93;57.00;98752.20;107786;1257;73485;-67
2023/08/07 02:30:33;;;;;;;;;;;;;;;25.96;56.97;98747.16;107732;1257;73104;-69
2023/08/07 02:33:00;;;;;;;;;;;;;;;25.99;56.90;98737.60;107531;1256;71090;-68
2023/08/07 02:35:28;;;;;;;;;;;;;;;26.00;56.82;98728.69;107643;1256;61279;-68
2023/08/07 02:37:56;;;;;;;;;;;;;;;26.01;56.85;98733.43;107756;1256;63081;-68
2023/08/07 02:40:25;;;;;;;;;;;;;;;26.03;56.81;98733.33;107685;1257;74753;-67
2023/08/07 02:42:52;;;;;;;;;;;;;;;26.03;56.83;98733.65;107793;1257;71612;-70
2023/08/07 02:45:20;;;;;;;;;;;;;;;26.01;56.93;98741.25;107675;1256;72753;-67
2023/08/07 02:47:47;;;;;;;;;;;;;;;26.00;56.97;98740.04;107647;1257;62831;-69
2023/08/07 02:50:15;;;;;;;;;;;;;;;26.00;57.03;98738.14;107755;1257;61250;-68
2023/08/07 02:52:43;;;;;;;;;;;;;;;26.01;57.00;98738.45;107673;1256;74790;-68
2023/08/07 02:55:12;;;;;;;;;;;;;;;26.00;57.16;98737.66;107801;1257;72908;-69
2023/08/07 02:57:40;;;;;;;;;;;;;;;25.99;57.16;98735.33;107780;1257;71428;-69
2023/08/07 03:00:08;;;;;;;;;;;;;;;26.00;57.30;98730.64;107706;1255;61755;-68
2023/08/07 03:02:35;;;;;;;;;;;;;;;26.00;57.33;98726.57;107774;1257;61044;-67
2023/08/07 03:05:04;;;;;;;;;;;;;;;25.99;57.38;98717.81;107718;1257;75162;-68
2023/08/07 03:07:32;;;;;;;;;;;;;;;25.98;57.51;98721.11;107899;1257;71281;-68
2023/08/07 03:10:00;;;;;;;;;;;;;;;25.95;57.54;98717.30;107532;1257;73164;-69
2023/08/07 03:12:27;;;;;;;;;;;;;;;25.93;57.82;98715.94;107750;1257;61702;-69
2023/08/07 03:14:55;;;;;;;;;;;;;;;25.92;57.86;98722.73;107691;1255;61067;-69
2023/08/07 03:17:23;;;;;;;;;;;;;;;25.94;57.81;98716.31;107791;1256;73231;-67
2023/08/07 03:19:51;;;;;;;;;;;;;;;25.95;57.78;98717.39;107749;1257;72890;-67
2023/08/07 03:22:18;;;;;;;;;;;;;;;25.97;57.85;98720.81;107800;1257;71068;-68
2023/08/07 03:24:47;;;;;;;;;;;;;;;25.99;57.64;98729.78;107647;1257;60406;-67
2023/08/07 03:27:14;;;;;;;;;;;;;;;26.00;57.74;98734.78;107715;1257;60287;-68
2023/08/07 03:29:42;;;;;;;;;;;;;;;26.00;57.73;98739.70;107763;1256;74599;-69
2023/08/07 03:32:12;;;;;;;;;;;;;;;26.02;57.72;98736.47;107662;1256;72750;-69
2023/08/07 03:34:40;;;;;;;;;;;;;;;26.04;57.81;98731.53;107828;1254;71490;-69
2023/08/07 03:37:08;;;;;;;;;;;;;;;26.04;57.81;98722.55;107738;1257;61710;-69
2023/08/07 03:39:36;;;;;;;;;;;;;;;26.04;57.93;98719.58;107712;1254;61206;-67
2023/08/07 03:42:04;;;;;;;;;;;;;;;26.02;57.94;98722.88;107593;1256;73356;-69
2023/08/07 03:44:34;;;;;;;;;;;;;;;26.01;58.16;98719.52;107793;1257;71587;-68
2023/08/07 03:47:02;;;;;;;;;;;;;;;26.03;58.29;98720.27;107735;1256;71412;-68
2023/08/07 03:49:30;;;;;;;;;;;;;;;26.06;58.41;98714.79;107590;1257;61746;-70
2023/08/07 03:51:59;;;;;;;;;;;;;;;26.11;58.51;98715.36;107758;1255;61216;-68
2023/08/07 03:54:26;;;;;;;;;;;;;;;26.14;58.46;98708.53;107692;1257;73446;-68
2023/08/07 03:56:54;;;;;;;;;;;;;;;26.20;58.45;98698.06;107820;1254;72304;-68
2023/08/07 03:59:22;;;;;;;;;;;;;;;26.26;58.52;98688.62;107757;1257;71470;-69
2023/08/07 04:01:50;;;;;;;;;;;;;;;26.30;58.60;98684.99;107923;1256;61228;-68
2023/08/07 04:04:18;;;;;;;;;;;;;;;26.35;58.64;98686.88;107630;1256;61120;-67
2023/08/07 04:06:46;;;;;;;;;;;;;;;26.44;58.62;98698.52;107821;1255;72638;-68
2023/08/07 04:09:13;;;;;;;;;;;;;;;26.53;58.61;98694.52;107623;1257;72718;-69
2023/08/07 04:11:41;;;;;;;;;;;;;;;26.60;58.44;98689.66;107747;1257;71405;-69
2023/08/07 04:14:09;;;;;;;;;;;;;;;26.67;58.32;98686.04;107668;1257;61193;-68
2023/08/07 04:16:37;;;;;;;;;;;;;;;26.75;58.21;98693.70;107618;1256;60268;-68
2023/08/07 04:19:07;;;;;;;;;;;;;;;26.79;58.07;98696.29;107743;1257;74738;-68
2023/08/07 04:21:34;;;;;;;;;;;;;;;26.85;57.99;98697.31;107743;1257;73072;-68
2023/08/07 04:24:07;;;;;;;;;;;;;;;26.91;57.91;98688.63;107671;1254;72704;-68
2023/08/07 04:26:35;;;;;;;;;;;;;;;26.98;57.80;98684.30;107742;1256;61688;-69
2023/08/07 04:29:02;;;;;;;;;;;;;;;27.02;57.84;98680.23;107709;1255;61134;-67
2023/08/07 04:31:33;;;;;;;;;;;;;;;27.08;57.75;98684.63;107819;1256;74684;-68
2023/08/07 04:34:01;;;;;;;;;;;;;;;27.17;57.58;98680.45;107713;1256;71578;-68
2023/08/07 04:36:29;;;;;;;;;;;;;;;27.23;57.45;98677.38;107768;1257;72812;-68
2023/08/07 04:38:57;;;;;;;;;;;;;;;27.29;57.10;98679.65;107805;1255;61240;-67
2023/08/07 04:41:26;;;;;;;;;;;;;;;27.32;56.91;98682.50;107930;1256;61201;-67
2023/08/07 04:43:53;;;;;;;;;;;;;;;27.33;56.60;98685.92;107847;1256;74693;-68
2023/08/07 04:46:21;;;;;;;;;;;;;;;27.37;56.65;98687.04;107824;1257;71721;-68
2023/08/07 04:48:49;;;;;;;;;;;;;;;27.43;56.44;98685.15;107697;1257;64117;-66
2023/08/07 04:51:16;;;;;;;;;;;;;;;27.49;56.22;98683.70;107514;1257;458119;-69
2023/08/07 04:53:44;;;;;;;;;;;;;;;27.55;56.01;98673.52;107799;1256;61155;-70
2023/08/07 04:56:11;;;;;;;;;;;;;;;27.62;55.86;98667.42;107771;1257;76884;-70
2023/08/07 04:58:39;;;;;;;;;;;;;;;27.68;55.54;98663.41;107753;1257;71593;-71
2023/08/07 05:01:07;;;;;;;;;;;;;;;27.72;55.48;98660.35;107806;1257;62529;-70
2023/08/07 05:03:34;;;;;;;;;;;;;;;27.75;55.33;98654.59;107665;1256;61340;-70
2023/08/07 05:06:02;;;;;;;;;;;;;;;27.75;54.96;98655.46;107904;1254;60275;-70
2023/08/07 05:08:29;;;;;;;;;;;;;;;27.76;54.89;98664.23;107781;1256;64502;-70
2023/08/07 05:10:57;;;;;;;;;;;;;;;27.77;54.92;98666.34;107701;1257;72189;-68
2023/08/07 05:13:24;;;;;;;;;;;;;;;27.80;54.94;98659.54;107670;1257;73083;-68
2023/08/07 05:15:52;;;;;;;;;;;;;;;28.47;53.64;98647.89;107624;1257;60294;-70
2023/08/07 05:18:20;;;;;;;;;;;;;;;28.85;52.43;98645.30;107798;1256;61121;-70
2023/08/07 05:20:47;;;;;;;;;;;;;;;28.99;52.12;98656.38;107771;1257;64589;-70
2023/08/07 05:23:15;;;;;;;;;;;;;;;29.13;51.89;98659.84;107821;1256;62648;-70
2023/08/07 05:25:47;;;;;;;;;;;;;;;29.26;51.53;98659.70;107710;1260;63785;-71
2023/08/07 05:28:17;;;;;;;;;;;;;;;29.41;51.13;98650.14;107763;1256;61188;-69
2023/08/07 05:30:45;;;;;;;;;;;;;;;29.56;50.73;98644.20;107656;1257;59932;-71
2023/08/07 05:33:14;;;;;;;;;;;;;;;29.70;50.61;98646.54;107734;1257;64590;-71
2023/08/07 05:35:42;;;;;;;;;;;;;;;29.85;50.40;98649.30;107577;1254;62617;-70
2023/08/07 05:38:10;;;;;;;;;;;;;;;29.95;50.16;98650.66;107604;1256;62509;-69
2023/08/07 05:40:37;;;;;;;;;;;;;;;29.99;49.83;98651.18;107645;1257;61388;-69
2023/08/07 05:43:05;;;;;;;;;;;;;;;30.02;49.70;98653.63;107621;1256;61340;-68
2023/08/07 05:45:32;;;;;;;;;;;;;;;30.00;49.72;98653.14;107790;1259;65847;-69
2023/08/07 05:48:00;;;;;;;;;;;;;;;29.95;49.75;98657.73;107768;1257;64018;-69
2023/08/07 05:50:27;;;;;;;;;;;;;;;29.86;49.71;98668.68;107715;1256;72065;-70
2023/08/07 05:52:55;;;;;;;;;;;;;;;29.79;49.87;98665.09;107866;1254;60270;-70
2023/08/07 05:55:23;;;;;;;;;;;;;;;29.71;50.02;98653.83;107811;1259;60492;-70
2023/08/07 05:57:50;;;;;;;;;;;;;;;29.63;50.26;98652.45;107563;1257;77232;-69
2023/08/07 06:00:19;;;;;;;;;;;;;;;29.59;50.42;98655.91;107637;1257;65164;-68
2023/08/07 06:02:47;;;;;;;;;;;;;;;29.56;50.76;98663.37;107620;1255;62549;-70
2023/08/07 06:05:16;;;;;;;;;;;;;;;29.58;51.12;98673.00;107541;1256;61298;-70
2023/08/07 06:07:44;;;;;;;;;;;;;;;29.64;51.25;98683.33;107612;1257;61260;-69
2023/08/07 06:10:11;;;;;;;;;;;;;;;29.71;51.41;98669.00;107408;1257;65854;-69
2023/08/07 06:12:39;;;;;;;;;;;;;;;29.78;51.39;98659.93;107563;1256;65937;-69
2023/08/07 06:15:07;;;;;;;;;;;;;;;29.85;51.35;98663.50;107519;1256;62620;-69
2023/08/07 06:17:35;;;;;;;;;;;;;;;29.95;51.37;98662.47;107723;1257;61202;-70
2023/08/07 06:20:04;;;;;;;;;;;;;;;30.02;51.06;98658.73;107796;1256;61234;-69
2023/08/07 06:22:32;;;;;;;;;;;;;;;30.10;51.34;98660.86;107595;1255;65566;-69
2023/08/07 06:25:00;;;;;;;;;;;;;;;30.23;51.26;98655.27;107593;1260;65044;-68
2023/08/07 06:27:27;;;;;;;;;;;;;;;30.37;50.84;98645.29;107565;1256;74913;-68
2023/08/07 06:29:55;;;;;;;;;;;;;;;30.47;50.33;98646.03;107662;1256;61248;-70
2023/08/07 06:32:24;;;;;;;;;;;;;;;30.52;50.07;98641.91;107580;1257;61208;-69
2023/08/07 06:34:52;;;;;;;;;;;;;;;30.57;50.11;98632.89;107637;1257;64532;-68
2023/08/07 06:37:20;;;;;;;;;;;;;;;30.62;49.86;98647.55;107560;1257;63792;-68
2023/08/07 06:39:47;;;;;;;;;;;;;;;30.65;49.91;98661.23;107641;1257;62558;-69
2023/08/07 06:42:16;;;;;;;;;;;;;;;30.65;50.02;98656.73;107595;1260;59854;-70
2023/08/07 06:44:44;;;;;;;;;;;;;;;30.62;49.64;98646.05;107619;1257;61227;-70
2023/08/07 06:47:11;;;;;;;;;;;;;;;30.59;50.07;98649.92;107697;1257;65845;-67
2023/08/07 06:49:39;;;;;;;;;;;;;;;30.53;50.15;98657.09;107822;1257;63238;-69
2023/08/07 06:52:07;;;;;;;;;;;;;;;30.48;50.17;98658.41;107613;1256;62566;-69
2023/08/07 06:54:34;;;;;;;;;;;;;;;30.44;50.43;98657.19;107525;1255;61011;-69
2023/08/07 06:57:02;;;;;;;;;;;;;;;30.43;50.35;98652.52;107561;1256;63044;-68
2023/08/07 06:59:29;;;;;;;;;;;;;;;30.41;50.60;98654.78;107600;1259;65678;-70
2023/08/07 07:01:57;;;;;;;;;;;;;;;30.41;50.98;98654.55;107488;1257;63077;-69
2023/08/07 07:04:25;;;;;;;;;;;;;;;30.46;50.72;98651.23;107465;1257;63772;-69
2023/08/07 07:06:57;;;;;;;;;;;;;;;30.59;50.40;98650.70;107346;1257;61500;-71
2023/08/07 07:09:27;;;;;;;;;;;;;;;30.68;49.67;98669.66;107480;1256;61826;-70
2023/08/07 07:11:55;;;;;;;;;;;;;;;30.65;49.58;98681.73;107460;1256;64499;-69
2023/08/07 07:14:24;;;;;;;;;;;;;;;30.56;49.58;98674.73;107571;1257;62508;-70
2023/08/07 07:16:51;;;;;;;;;;;;;;;30.50;49.80;98671.52;107666;1257;63995;-70
2023/08/07 07:19:18;;;;;;;;;;;;;;;30.50;49.89;98675.14;107610;1256;61087;-72
2023/08/07 07:21:46;;;;;;;;;;;;;;;30.47;49.87;98674.52;107615;1256;61116;-72
2023/08/07 07:24:13;;;;;;;;;;;;;;;30.41;50.00;98676.98;107577;1257;64550;-69
2023/08/07 07:26:41;;;;;;;;;;;;;;;30.33;50.26;98677.02;107665;1257;64116;-69
2023/08/07 07:29:09;;;;;;;;;;;;;;;30.24;50.66;98684.29;107344;1262;64228;-69
2023/08/07 07:31:36;;;;;;;;;;;;;;;30.12;51.36;98690.72;107452;1256;61216;-71
2023/08/07 07:34:04;;;;;;;;;;;;;;;30.06;51.68;98688.52;107414;1260;61096;-70
2023/08/07 07:36:31;;;;;;;;;;;;;;;30.12;52.06;98684.35;107439;1255;64540;-71
2023/08/07 07:38:59;;;;;;;;;;;;;;;30.27;51.86;98681.29;107547;1256;62792;-70
2023/08/07 07:41:27;;;;;;;;;;;;;;;30.59;51.22;98672.27;107710;1259;63799;-70
2023/08/07 07:43:56;;;;;;;;;;;;;;;30.91;50.75;98669.52;107556;1257;61088;-70
2023/08/07 07:46:25;;;;;;;;;;;;;;;31.14;50.14;98668.35;107532;1262;61116;-69
2023/08/07 07:48:54;;;;;;;;;;;;;;;31.27;49.49;98672.50;107673;1256;76716;-68
2023/08/07 07:51:22;;;;;;;;;;;;;;;31.34;48.99;98672.70;107566;1260;64061;-68
2023/08/07 07:53:49;;;;;;;;;;;;;;;31.26;48.87;98667.48;107461;1256;63874;-68
2023/08/07 07:56:37;;;;;;;;;;;;;;;31.08;49.39;98666.00;107444;1260;61094;-69
2023/08/07 07:59:04;;;;;;;;;;;;;;;31.05;49.28;98665.31;107544;1257;61145;-69
2023/08/07 08:01:35;;;;;;;;;;;;;;;31.10;49.35;98661.61;107618;1255;65838;-68
2023/08/07 08:04:03;;;;;;;;;;;;;;;31.21;49.18;98660.66;108232;1256;63858;-71
2023/08/07 08:06:31;;;;;;;;;;;;;;;31.24;48.56;98654.87;108229;1254;63851;-69
2023/08/07 08:08:59;;;;;;;;;;;;;;;31.15;48.70;98652.09;107665;1257;61237;-69
2023/08/07 08:11:26;;;;;;;;;;;;;;;31.07;49.15;98645.71;107878;1257;61211;-69
2023/08/07 08:13:54;;;;;;;;;;;;;;;30.99;49.00;98636.42;108345;1256;64543;-67
2023/08/07 08:16:21;;;;;;;;;;;;;;;31.00;49.23;98631.44;107723;1256;66465;-68
2023/08/07 08:18:49;;;;;;;;;;;;;;;31.05;49.16;98634.59;107720;1257;62543;-69
2023/08/07 08:21:17;;;;;;;;;;;;;;;31.05;49.00;98642.25;107745;1257;61630;-68
2023/08/07 08:23:44;;;;;;;;;;;;;;;31.02;49.16;98647.30;107597;1257;61233;-70
2023/08/07 08:26:12;;;;;;;;;;;;;;;30.97;49.17;98653.61;107754;1256;74629;-67
2023/08/07 08:28:39;;;;;;;;;;;;;;;30.95;49.26;98656.41;107754;1255;62646;-69
2023/08/07 08:31:07;;;;;;;;;;;;;;;30.99;49.36;98652.98;107691;1256;66245;-67
2023/08/07 08:33:34;;;;;;;;;;;;;;;31.06;49.17;98653.45;107716;1257;61094;-68
2023/08/07 08:36:02;;;;;;;;;;;;;;;31.13;49.04;98657.05;107654;1258;61090;-67
2023/08/07 08:38:32;;;;;;;;;;;;;;;31.21;48.81;98657.02;107766;1254;65954;-69
2023/08/07 08:41:01;;;;;;;;;;;;;;;31.29;48.48;98657.86;107658;1257;74964;-69
2023/08/07 08:43:29;;;;;;;;;;;;;;;31.31;48.57;98655.59;107596;1256;63940;-70
2023/08/07 08:45:57;;;;;;;;;;;;;;;31.35;48.56;98655.34;107719;1255;61198;-69
2023/08/07 08:48:24;;;;;;;;;;;;;;;31.40;48.35;98652.89;107779;1257;61093;-70
2023/08/07 08:50:51;;;;;;;;;;;;;;;31.50;48.10;98650.80;107628;1256;65791;-71
2023/08/07 08:53:19;;;;;;;;;;;;;;;31.64;48.12;98646.73;107389;1260;62768;-69
2023/08/07 08:55:47;;;;;;;;;;;;;;;31.79;47.96;98651.48;107487;1257;63829;-68
2023/08/07 08:58:15;;;;;;;;;;;;;;;31.91;47.55;98650.45;107674;1255;59755;-69
2023/08/07 09:00:42;;;;;;;;;;;;;;;31.99;47.24;98653.65;107533;1257;61381;-69
2023/08/07 09:03:10;;;;;;;;;;;;;;;31.98;47.05;98664.52;107574;1257;64489;-72
2023/08/07 09:05:38;;;;;;;;;;;;;;;31.82;44.83;98680.27;107730;1257;62509;-69
2023/08/07 09:08:05;;;;;;;;;;;;;;;31.40;43.49;98677.23;107602;1256;62691;-71
2023/08/07 09:10:33;;;;;;;;;;;;;;;30.87;44.94;98694.23;107639;1262;61128;-70
2023/08/07 09:13:03;;;;;;;;;;;;;;;30.50;45.14;98697.73;107812;1257;61208;-68
2023/08/07 09:15:31;;;;;;;;;;;;;;;30.20;45.36;98702.00;107651;1256;64502;-70
2023/08/07 09:17:59;;;;;;;;;;;;;;;29.98;45.87;98721.38;107617;1256;64047;-72
2023/08/07 09:20:26;;;;;;;;;;;;;;;29.83;46.86;98730.65;107541;1257;64477;-71
2023/08/07 09:22:54;;;;;;;;;;;;;;;29.60;47.64;98723.86;107618;1255;61214;-70
2023/08/07 09:25:29;;;;;;;;;;;;;;;29.36;48.80;98722.95;107802;1257;61252;-70
2023/08/07 09:28:00;;;;;;;;;;;;;;;29.09;49.84;98728.20;107745;1257;65896;-71
2023/08/07 09:30:32;;;;;;;;;;;;;;;28.94;50.84;98735.79;107543;1257;62673;-71
2023/08/07 09:33:02;;;;;;;;;;;;;;;28.96;51.77;98745.64;107829;1260;63760;-72
2023/08/07 09:35:31;;;;;;;;;;;;;;;29.06;52.11;98749.54;107673;1260;59042;-69
2023/08/07 09:37:59;;;;;;;;;;;;;;;29.22;52.43;98740.47;107596;1256;61142;-71
2023/08/07 09:40:26;;;;;;;;;;;;;;;29.17;53.13;98742.71;107710;1256;73514;-69
2023/08/07 09:42:54;;;;;;;;;;;;;;;29.28;53.24;98761.23;107624;1257;62708;-70
2023/08/07 09:45:22;;;;;;;;;;;;;;;29.44;52.86;98768.73;107457;1259;63759;-69
2023/08/07 09:47:59;;;;;;;;;;;;;;;29.65;52.44;98767.71;107513;1257;61067;-74
2023/08/07 09:50:27;;;;;;;;;;;;;;;29.84;51.51;98769.22;107732;1255;61116;-71
2023/08/07 09:52:55;;;;;;;;;;;;;;;29.83;50.92;98771.38;107798;1256;64510;-70
2023/08/07 09:55:23;;;;;;;;;;;;;;;29.68;50.26;98771.73;107584;1257;63935;-68
2023/08/07 09:57:50;;;;;;;;;;;;;;;29.46;49.33;98794.14;107686;1255;74830;-68
2023/08/07 10:00:19;;;;;;;;;;;;;;;29.24;48.82;98818.83;107904;1260;61228;-68
2023/08/07 10:02:48;;;;;;;;;;;;;;;29.02;49.26;98822.27;107670;1257;60973;-69
2023/08/07 10:05:16;;;;;;;;;;;;;;;28.75;49.55;98815.39;107715;1257;65903;-69
2023/08/07 10:07:44;;;;;;;;;;;;;;;28.42;50.24;98829.48;107600;1257;72832;-67
2023/08/07 10:10:12;;;;;;;;;;;;;;;28.27;51.05;98826.61;107639;1257;71295;-68
2023/08/07 10:12:40;;;;;;;;;;;;;;;28.24;51.36;98839.37;107459;1259;61096;-68
2023/08/07 10:15:07;;;;;;;;;;;;;;;28.14;50.92;98836.48;107651;1255;61136;-67
2023/08/07 10:17:35;;;;;;;;;;;;;;;28.42;50.58;98831.31;107466;1257;75551;-69
2023/08/07 10:20:04;;;;;;;;;;;;;;;28.57;50.04;98837.64;107535;1261;71597;-69
2023/08/07 10:22:32;;;;;;;;;;;;;;;28.61;49.91;98849.09;107406;1256;63825;-69
2023/08/07 10:25:00;;;;;;;;;;;;;;;28.54;49.48;98863.83;107486;1257;61308;-68
2023/08/07 10:27:29;;;;;;;;;;;;;;;28.34;49.43;98865.63;107778;1257;61000;-68
2023/08/07 10:29:58;;;;;;;;;;;;;;;28.08;49.63;98870.69;107513;1261;74666;-67
2023/08/07 10:32:26;;;;;;;;;;;;;;;27.93;49.91;98874.05;108084;1256;71560;-70
2023/08/07 10:34:53;;;;;;;;;;;;;;;27.81;50.05;98885.90;107586;1257;71410;-67
2023/08/07 10:37:40;;;;;;;;;;;;;;;27.59;50.51;98882.48;107351;1257;61148;-67
2023/08/07 10:40:12;;;;;;;;;;;;;;;27.49;51.30;98887.17;107560;1256;60951;-68
2023/08/07 10:42:59;;;;;;;;;;;;;;;27.60;51.23;98891.89;107748;1257;74977;-66
2023/08/07 10:45:27;;;;;;;;;;;;;;;27.69;50.51;98894.27;107636;1256;73109;-68
2023/08/07 10:48:13;;;;;;;;;;;;;;;27.64;50.50;98902.34;107582;1257;73014;-70
2023/08/07 10:50:51;;;;;;;;;;;;;;;27.46;50.42;98917.30;107659;1256;61798;-70
2023/08/07 10:53:20;;;;;;;;;;;;;;;27.31;50.54;98906.20;107654;1257;60269;-67
2023/08/07 10:55:48;;;;;;;;;;;;;;;27.24;50.61;98910.20;107782;1257;74662;-68
2023/08/07 10:58:26;;;;;;;;;;;;;;;27.26;50.73;98911.20;107714;1261;71651;-71
2023/08/07 11:01:13;;;;;;;;;;;;;;;27.36;50.78;98918.66;107611;1257;72623;-68
2023/08/07 11:03:41;;;;;;;;;;;;;;;27.33;50.10;98940.80;107821;1255;61088;-69
2023/08/07 11:06:09;;;;;;;;;;;;;;;27.26;50.17;98946.20;107695;1256;61122;-69
2023/08/07 11:08:37;;;;;;;;;;;;;;;27.22;50.73;98946.39;107761;1261;74735;-71
2023/08/07 11:11:07;;;;;;;;;;;;;;;27.24;50.73;98953.11;107899;1256;71548;-72
2023/08/07 11:13:35;;;;;;;;;;;;;;;27.33;50.67;98955.59;107707;1256;71454;-67
2023/08/07 11:16:02;;;;;;;;;;;;;;;27.46;50.61;98954.52;107676;1260;61280;-67
2023/08/07 11:18:31;;;;;;;;;;;;;;;27.57;50.23;98954.61;107834;1257;61129;-68
2023/08/07 11:20:59;;;;;;;;;;;;;;;27.75;49.68;98948.21;107701;1256;74701;-68
2023/08/07 11:23:27;;;;;;;;;;;;;;;27.93;48.85;98948.52;107831;1256;63806;-69
2023/08/07 11:25:54;;;;;;;;;;;;;;;28.06;48.23;98951.17;107796;1256;63804;-69
2023/08/07 11:28:22;;;;;;;;;;;;;;;28.16;48.12;98951.73;107747;1257;61162;-69
2023/08/07 11:30:51;;;;;;;;;;;;;;;28.27;47.56;98957.13;107804;1257;59361;-70
2023/08/07 11:33:19;;;;;;;;;;;;;;;28.45;46.74;98958.13;107739;1256;76756;-67
2023/08/07 11:35:47;;;;;;;;;;;;;;;28.68;46.80;98964.42;107813;1255;71344;-69
2023/08/07 11:38:28;;;;;;;;;;;;;;;28.90;46.12;98972.67;107697;1257;71430;-72
2023/08/07 11:41:00;;;;;;;;;;;;;;;28.91;45.34;98975.11;107795;1257;61342;-68
2023/08/07 11:43:29;;;;;;;;;;;;;;;28.83;45.45;98975.56;107896;1256;61240;-68
2023/08/07 11:45:57;;;;;;;;;;;;;;;28.74;45.16;98986.09;107739;1257;73364;-69
2023/08/07 11:48:26;;;;;;;;;;;;;;;28.57;44.96;98992.48;107736;1256;64022;-68
2023/08/07 11:50:53;;;;;;;;;;;;;;;28.46;45.53;98994.23;107666;1257;72658;-69
2023/08/07 11:53:21;;;;;;;;;;;;;;;28.45;45.67;98996.91;107743;1257;61542;-70
2023/08/07 11:55:54;;;;;;;;;;;;;;;28.46;46.01;99005.36;107858;1257;61064;-70
2023/08/07 11:58:21;;;;;;;;;;;;;;;28.42;46.08;99013.42;107787;1257;73445;-71
2023/08/07 12:00:51;;;;;;;;;;;;;;;28.29;45.67;99005.27;107851;1255;71720;-70
2023/08/07 12:03:23;;;;;;;;;;;;;;;28.13;44.87;99007.53;107753;1257;63822;-70
2023/08/07 12:05:51;;;;;;;;;;;;;;;27.93;44.62;99015.33;107732;1257;61252;-70
2023/08/07 12:08:19;;;;;;;;;;;;;;;27.78;45.47;99020.99;107935;1254;61018;-69
2023/08/07 12:10:56;;;;;;;;;;;;;;;27.75;45.83;99026.27;107566;1257;74631;-70
2023/08/07 12:13:24;;;;;;;;;;;;;;;27.87;45.95;99026.46;107670;1258;72846;-72
2023/08/07 12:15:53;;;;;;;;;;;;;;;28.03;45.93;99028.84;107774;1254;74906;-72
2023/08/07 12:18:22;;;;;;;;;;;;;;;28.20;45.61;99036.54;107753;1254;61147;-68
2023/08/07 12:20:50;;;;;;;;;;;;;;;28.27;44.81;99036.75;107613;1256;61199;-69
2023/08/07 12:23:18;;;;;;;;;;;;;;;28.21;43.95;99045.31;107707;1257;76926;-68
2023/08/07 12:25:46;;;;;;;;;;;;;;;28.09;44.28;99060.92;107669;1257;71496;-70
2023/08/07 12:28:15;;;;;;;;;;;;;;;27.92;44.49;99074.54;107600;1260;62659;-73
2023/08/07 12:30:43;;;;;;;;;;;;;;;27.71;45.07;99073.42;107596;1257;61067;-73
2023/08/07 12:33:11;;;;;;;;;;;;;;;27.63;45.53;99077.27;107637;1257;61750;-71
2023/08/07 12:39:44;;;;;;;;;;;;;;;27.53;45.22;99086.84;104796;1292;599382;-68
2023/08/07 12:42:15;;;;;;;;;;;;;;;27.49;45.07;99090.80;107183;1265;60218;-69
2023/08/07 12:44:45;;;;;;;;;;;;;;;27.49;44.88;99095.59;107178;1264;59501;-68
2023/08/07 12:47:13;;;;;;;;;;;;;;;27.49;44.46;99102.08;107960;1258;72299;-69